sensor_id;sensor_type;location;lat;lon;timestamp;pressure;altitude;pressure_sealevel;temperature;humidity
63607;BME280;71992;52.478;-1.918;2023-12-07T00:00:21;99460.88;;;2.93;100.00
63607;BME280;71992;52.478;-1.918;2023-12-07T00:02:52;99460.78;;;2.95;100.00
63607;BME280;71992;52.478;-1.918;2023-12-07T00:05:23;99459.88;;;2.96;100.00
63607;BME280;71992;52.478;-1.918;2023-12-07T00:07:54;99456.31;;;2.97;100.00
63607;BME280;71992;52.478;-1.918;2023-12-07T00:10:24;99452.78;;;2.98;100.00
63607;BME280;71992;52.478;-1.918;2023-12-07T00:12:58;99445.72;;;2.98;100.00
63607;BME280;71992;52.478;-1.918;2023-12-07T00:15:29;99442.22;;;2.98;100.00
63607;BME280;71992;52.478;-1.918;2023-12-07T00:18:00;99442.94;;;3.01;100.00
63607;BME280;71992;52.478;-1.918;2023-12-07T00:20:30;99449.94;;;3.02;100.00
63607;BME280;71992;52.478;-1.918;2023-12-07T00:23:01;99434.88;;;3.04;100.00
63607;BME280;71992;52.478;-1.918;2023-12-07T00:25:32;99431.31;;;3.07;100.00
63607;BME280;71992;52.478;-1.918;2023-12-07T00:28:05;99419.81;;;3.08;100.00
63607;BME280;71992;52.478;-1.918;2023-12-07T00:30:37;99423.19;;;3.11;100.00
63607;BME280;71992;52.478;-1.918;2023-12-07T00:33:08;99422.25;;;3.12;100.00
63607;BME280;71992;52.478;-1.918;2023-12-07T00:35:39;99419.56;;;3.14;100.00
63607;BME280;71992;52.478;-1.918;2023-12-07T00:38:10;99410.66;;;3.17;100.00
63607;BME280;71992;52.478;-1.918;2023-12-07T00:40:41;99415.00;;;3.18;100.00
63607;BME280;71992;52.478;-1.918;2023-12-07T00:43:15;99415.81;;;3.20;100.00
63607;BME280;71992;52.478;-1.918;2023-12-07T00:45:46;99410.47;;;3.21;100.00
63607;BME280;71992;52.478;-1.918;2023-12-07T00:48:16;99409.50;;;3.24;100.00
63607;BME280;71992;52.478;-1.918;2023-12-07T00:50:47;99408.66;;;3.23;100.00
63607;BME280;71992;52.478;-1.918;2023-12-07T00:53:18;99391.81;;;3.26;100.00
63607;BME280;71992;52.478;-1.918;2023-12-07T00:55:49;99392.66;;;3.26;100.00
63607;BME280;71992;52.478;-1.918;2023-12-07T00:58:23;99396.13;;;3.28;100.00
63607;BME280;71992;52.478;-1.918;2023-12-07T01:00:53;99396.91;;;3.30;100.00
63607;BME280;71992;52.478;-1.918;2023-12-07T01:03:24;99391.50;;;3.33;100.00
63607;BME280;71992;52.478;-1.918;2023-12-07T01:05:56;99390.50;;;3.36;100.00
63607;BME280;71992;52.478;-1.918;2023-12-07T01:08:27;99377.19;;;3.39;100.00
63607;BME280;71992;52.478;-1.918;2023-12-07T01:11:01;99354.25;;;3.41;100.00
63607;BME280;71992;52.478;-1.918;2023-12-07T01:13:34;99377.91;;;3.43;100.00
63607;BME280;71992;52.478;-1.918;2023-12-07T01:16:08;99381.34;;;3.45;100.00
63607;BME280;71992;52.478;-1.918;2023-12-07T01:18:39;99373.38;;;3.46;100.00
63607;BME280;71992;52.478;-1.918;2023-12-07T01:21:10;99375.06;;;3.47;100.00
63607;BME280;71992;52.478;-1.918;2023-12-07T01:23:42;99366.19;;;3.50;100.00
63607;BME280;71992;52.478;-1.918;2023-12-07T01:26:13;99363.47;;;3.51;100.00
63607;BME280;71992;52.478;-1.918;2023-12-07T01:28:47;99353.75;;;3.52;100.00
63607;BME280;71992;52.478;-1.918;2023-12-07T01:31:17;99352.00;;;3.52;100.00
63607;BME280;71992;52.478;-1.918;2023-12-07T01:33:48;99352.00;;;3.52;100.00
63607;BME280;71992;52.478;-1.918;2023-12-07T01:36:19;99343.19;;;3.52;100.00
63607;BME280;71992;52.478;-1.918;2023-12-07T01:38:50;99339.69;;;3.51;100.00
63607;BME280;71992;52.478;-1.918;2023-12-07T01:41:21;99350.22;;;3.53;100.00
63607;BME280;71992;52.478;-1.918;2023-12-07T01:43:55;99340.50;;;3.53;100.00
63607;BME280;71992;52.478;-1.918;2023-12-07T01:46:25;99319.31;;;3.55;100.00
63607;BME280;71992;52.478;-1.918;2023-12-07T01:48:56;99320.13;;;3.57;100.00
63607;BME280;71992;52.478;-1.918;2023-12-07T01:51:27;99319.19;;;3.58;100.00
63607;BME280;71992;52.478;-1.918;2023-12-07T01:53:59;99315.63;;;3.59;100.00
63607;BME280;71992;52.478;-1.918;2023-12-07T01:56:30;99317.28;;;3.62;100.00
63607;BME280;71992;52.478;-1.918;2023-12-07T01:59:04;99311.13;;;3.61;100.00
63607;BME280;71992;52.478;-1.918;2023-12-07T02:01:34;99311.06;;;3.63;100.00
63607;BME280;71992;52.478;-1.918;2023-12-07T02:04:05;99310.16;;;3.64;100.00
63607;BME280;71992;52.478;-1.918;2023-12-07T02:06:38;99306.50;;;3.66;100.00
63607;BME280;71992;52.478;-1.918;2023-12-07T02:09:09;99296.00;;;3.65;100.00
63607;BME280;71992;52.478;-1.918;2023-12-07T02:11:40;99293.31;;;3.66;100.00
63607;BME280;71992;52.478;-1.918;2023-12-07T02:14:14;99300.28;;;3.67;100.00
63607;BME280;71992;52.478;-1.918;2023-12-07T02:16:48;99289.66;;;3.69;100.00
63607;BME280;71992;52.478;-1.918;2023-12-07T02:19:35;99287.03;;;3.69;100.00
63607;BME280;71992;52.478;-1.918;2023-12-07T02:22:12;99287.03;;;3.69;100.00
63607;BME280;71992;52.478;-1.918;2023-12-07T02:24:48;99287.94;;;3.68;100.00
63607;BME280;71992;52.478;-1.918;2023-12-07T02:27:36;99283.44;;;3.70;100.00
63607;BME280;71992;52.478;-1.918;2023-12-07T02:30:08;99274.66;;;3.69;100.00
63607;BME280;71992;52.478;-1.918;2023-12-07T02:32:40;99265.91;;;3.69;100.00
63607;BME280;71992;52.478;-1.918;2023-12-07T02:35:12;99268.59;;;3.67;100.00
63607;BME280;71992;52.478;-1.918;2023-12-07T02:37:45;99261.53;;;3.68;100.00
63607;BME280;71992;52.478;-1.918;2023-12-07T02:40:18;99257.97;;;3.69;100.00
63607;BME280;71992;52.478;-1.918;2023-12-07T02:42:52;99253.53;;;3.69;100.00
63607;BME280;71992;52.478;-1.918;2023-12-07T02:45:24;99251.75;;;3.70;100.00
63607;BME280;71992;52.478;-1.918;2023-12-07T02:47:55;99257.91;;;3.70;100.00
63607;BME280;71992;52.478;-1.918;2023-12-07T02:50:27;99249.13;;;3.70;100.00
63607;BME280;71992;52.478;-1.918;2023-12-07T02:52:58;99241.13;;;3.71;100.00
63607;BME280;71992;52.478;-1.918;2023-12-07T02:55:29;99228.78;;;3.72;100.00
63607;BME280;71992;52.478;-1.918;2023-12-07T02:58:03;99234.06;;;3.72;100.00
63607;BME280;71992;52.478;-1.918;2023-12-07T03:00:34;99237.63;;;3.71;100.00
63607;BME280;71992;52.478;-1.918;2023-12-07T03:03:05;99235.00;;;3.71;100.00
63607;BME280;71992;52.478;-1.918;2023-12-07T03:05:36;99230.63;;;3.70;100.00
63607;BME280;71992;52.478;-1.918;2023-12-07T03:08:06;99222.72;;;3.70;100.00
63607;BME280;71992;52.478;-1.918;2023-12-07T03:10:37;99222.72;;;3.70;100.00
63607;BME280;71992;52.478;-1.918;2023-12-07T03:13:11;99212.16;;;3.70;100.00
63607;BME280;71992;52.478;-1.918;2023-12-07T03:15:41;99200.72;;;3.69;100.00
63607;BME280;71992;52.478;-1.918;2023-12-07T03:18:12;99198.03;;;3.71;100.00
63607;BME280;71992;52.478;-1.918;2023-12-07T03:20:43;99197.25;;;3.69;100.00
63607;BME280;71992;52.478;-1.918;2023-12-07T03:23:14;99189.31;;;3.69;100.00
63607;BME280;71992;52.478;-1.918;2023-12-07T03:25:45;99192.81;;;3.69;100.00
63607;BME280;71992;52.478;-1.918;2023-12-07T03:28:21;99198.88;;;3.71;100.00
63607;BME280;71992;52.478;-1.918;2023-12-07T03:30:52;99176.91;;;3.71;100.00
63607;BME280;71992;52.478;-1.918;2023-12-07T03:33:23;99165.50;;;3.70;100.00
63607;BME280;71992;52.478;-1.918;2023-12-07T03:35:54;99177.75;;;3.71;100.00
63607;BME280;71992;52.478;-1.918;2023-12-07T03:38:24;99177.75;;;3.71;100.00
63607;BME280;71992;52.478;-1.918;2023-12-07T03:40:55;99160.06;;;3.73;100.00
63607;BME280;71992;52.478;-1.918;2023-12-07T03:43:29;99152.97;;;3.74;100.00
63607;BME280;71992;52.478;-1.918;2023-12-07T03:46:03;99153.84;;;3.74;100.00
63607;BME280;71992;52.478;-1.918;2023-12-07T03:48:36;99141.41;;;3.76;100.00
63607;BME280;71992;52.478;-1.918;2023-12-07T03:51:07;99136.06;;;3.78;100.00
63607;BME280;71992;52.478;-1.918;2023-12-07T03:53:38;99122.88;;;3.78;100.00
63607;BME280;71992;52.478;-1.918;2023-12-07T03:56:09;99113.16;;;3.79;100.00
63607;BME280;71992;52.478;-1.918;2023-12-07T03:58:42;99123.66;;;3.80;100.00
63607;BME280;71992;52.478;-1.918;2023-12-07T04:01:10;99108.66;;;3.81;100.00
63607;BME280;71992;52.478;-1.918;2023-12-07T04:03:41;99113.78;;;3.84;100.00
63607;BME280;71992;52.478;-1.918;2023-12-07T04:06:12;99102.38;;;3.83;100.00
63607;BME280;71992;52.478;-1.918;2023-12-07T04:08:43;99101.44;;;3.84;100.00
63607;BME280;71992;52.478;-1.918;2023-12-07T04:11:15;99097.00;;;3.85;100.00
63607;BME280;71992;52.478;-1.918;2023-12-07T04:13:49;99093.44;;;3.86;100.00
63607;BME280;71992;52.478;-1.918;2023-12-07T04:16:19;99103.16;;;3.85;100.00
63607;BME280;71992;52.478;-1.918;2023-12-07T04:18:50;99090.78;;;3.86;100.00
63607;BME280;71992;52.478;-1.918;2023-12-07T04:21:21;99084.66;;;3.85;100.00
63607;BME280;71992;52.478;-1.918;2023-12-07T04:23:52;99088.16;;;3.86;100.00
63607;BME280;71992;52.478;-1.918;2023-12-07T04:26:23;99085.44;;;3.87;100.00
63607;BME280;71992;52.478;-1.918;2023-12-07T04:28:56;99078.47;;;3.86;100.00
63607;BME280;71992;52.478;-1.918;2023-12-07T04:31:27;99070.53;;;3.86;100.00
63607;BME280;71992;52.478;-1.918;2023-12-07T04:33:58;99066.88;;;3.89;100.00
63607;BME280;71992;52.478;-1.918;2023-12-07T04:36:31;99071.28;;;3.88;100.00
63607;BME280;71992;52.478;-1.918;2023-12-07T04:39:02;99054.59;;;3.88;100.00
63607;BME280;71992;52.478;-1.918;2023-12-07T04:41:33;99051.94;;;3.88;100.00
63607;BME280;71992;52.478;-1.918;2023-12-07T04:44:07;99032.63;;;3.87;100.00
63607;BME280;71992;52.478;-1.918;2023-12-07T04:46:38;99022.06;;;3.87;100.00
63607;BME280;71992;52.478;-1.918;2023-12-07T04:49:09;99020.25;;;3.88;100.00
63607;BME280;71992;52.478;-1.918;2023-12-07T04:51:40;99024.69;;;3.87;100.00
63607;BME280;71992;52.478;-1.918;2023-12-07T04:54:14;99022.91;;;3.88;100.00
63607;BME280;71992;52.478;-1.918;2023-12-07T04:56:45;99014.91;;;3.89;100.00
63607;BME280;71992;52.478;-1.918;2023-12-07T04:59:18;99012.25;;;3.89;100.00
63607;BME280;71992;52.478;-1.918;2023-12-07T05:01:49;99004.34;;;3.89;100.00
63607;BME280;71992;52.478;-1.918;2023-12-07T05:04:21;99008.69;;;3.90;100.00
63607;BME280;71992;52.478;-1.918;2023-12-07T05:06:51;98999.00;;;3.91;100.00
63607;BME280;71992;52.478;-1.918;2023-12-07T05:09:22;99014.75;;;3.92;100.00
63607;BME280;71992;52.478;-1.918;2023-12-07T05:11:53;99001.53;;;3.92;100.00
63607;BME280;71992;52.478;-1.918;2023-12-07T05:14:27;99012.97;;;3.93;100.00
63607;BME280;71992;52.478;-1.918;2023-12-07T05:16:58;99016.53;;;3.92;100.00
63607;BME280;71992;52.478;-1.918;2023-12-07T05:19:28;99004.97;;;3.94;100.00
63607;BME280;71992;52.478;-1.918;2023-12-07T05:21:59;99007.53;;;3.96;100.00
63607;BME280;71992;52.478;-1.918;2023-12-07T05:24:30;98989.81;;;3.98;100.00
63607;BME280;71992;52.478;-1.918;2023-12-07T05:27:02;98985.38;;;3.98;100.00
63607;BME280;71992;52.478;-1.918;2023-12-07T05:29:36;98992.22;;;4.03;100.00
63607;BME280;71992;52.478;-1.918;2023-12-07T05:32:07;98982.50;;;4.03;100.00
63607;BME280;71992;52.478;-1.918;2023-12-07T05:34:37;98983.28;;;4.05;100.00
63607;BME280;71992;52.478;-1.918;2023-12-07T05:37:09;98976.13;;;4.07;100.00
63607;BME280;71992;52.478;-1.918;2023-12-07T05:39:39;98976.06;;;4.09;100.00
63607;BME280;71992;52.478;-1.918;2023-12-07T05:42:10;98990.91;;;4.11;100.00
63607;BME280;71992;52.478;-1.918;2023-12-07T05:44:44;98972.25;;;4.14;100.00
63607;BME280;71992;52.478;-1.918;2023-12-07T05:47:15;98954.59;;;4.15;100.00
63607;BME280;71992;52.478;-1.918;2023-12-07T05:49:46;98953.56;;;4.17;100.00
63607;BME280;71992;52.478;-1.918;2023-12-07T05:52:16;98957.00;;;4.19;100.00
63607;BME280;71992;52.478;-1.918;2023-12-07T05:54:47;98955.97;;;4.22;100.00
63607;BME280;71992;52.478;-1.918;2023-12-07T05:57:19;98944.50;;;4.23;100.00
63607;BME280;71992;52.478;-1.918;2023-12-07T05:59:53;98947.91;;;4.25;100.00
63607;BME280;71992;52.478;-1.918;2023-12-07T06:02:23;98947.81;;;4.27;100.00
63607;BME280;71992;52.478;-1.918;2023-12-07T06:04:54;98954.81;;;4.28;100.00
63607;BME280;71992;52.478;-1.918;2023-12-07T06:07:25;98945.94;;;4.29;100.00
63607;BME280;71992;52.478;-1.918;2023-12-07T06:09:56;98932.72;;;4.29;100.00
63607;BME280;71992;52.478;-1.918;2023-12-07T06:12:28;98933.59;;;4.29;100.00
63607;BME280;71992;52.478;-1.918;2023-12-07T06:15:02;98931.81;;;4.30;100.00
63607;BME280;71992;52.478;-1.918;2023-12-07T06:17:34;98925.56;;;4.31;100.00
63607;BME280;71992;52.478;-1.918;2023-12-07T06:20:06;98928.22;;;4.31;100.00
63607;BME280;71992;52.478;-1.918;2023-12-07T06:22:38;98929.06;;;4.31;100.00
63607;BME280;71992;52.478;-1.918;2023-12-07T06:25:09;98919.38;;;4.32;100.00
63607;BME280;71992;52.478;-1.918;2023-12-07T06:27:40;98915.59;;;4.36;100.00
63607;BME280;71992;52.478;-1.918;2023-12-07T06:30:15;98902.38;;;4.36;100.00
63607;BME280;71992;52.478;-1.918;2023-12-07T06:32:46;98908.44;;;4.38;100.00
63607;BME280;71992;52.478;-1.918;2023-12-07T06:35:17;98901.47;;;4.37;100.00
63607;BME280;71992;52.478;-1.918;2023-12-07T06:37:48;98886.31;;;4.41;100.00
63607;BME280;71992;52.478;-1.918;2023-12-07T06:40:31;98890.63;;;4.42;100.00
63607;BME280;71992;52.478;-1.918;2023-12-07T06:43:02;98896.78;;;4.42;100.00
63607;BME280;71992;52.478;-1.918;2023-12-07T06:45:35;98896.78;;;4.42;100.00
63607;BME280;71992;52.478;-1.918;2023-12-07T06:48:06;98896.69;;;4.44;100.00
63607;BME280;71992;52.478;-1.918;2023-12-07T06:50:37;98882.53;;;4.45;100.00
63607;BME280;71992;52.478;-1.918;2023-12-07T06:53:08;98885.09;;;4.46;100.00
63607;BME280;71992;52.478;-1.918;2023-12-07T06:55:39;98878.03;;;4.47;100.00
63607;BME280;71992;52.478;-1.918;2023-12-07T06:58:10;98889.38;;;4.49;100.00
63607;BME280;71992;52.478;-1.918;2023-12-07T07:00:44;98883.16;;;4.50;100.00
63607;BME280;71992;52.478;-1.918;2023-12-07T07:03:15;98886.53;;;4.52;100.00
63607;BME280;71992;52.478;-1.918;2023-12-07T07:05:47;98886.47;;;4.53;100.00
63607;BME280;71992;52.478;-1.918;2023-12-07T07:08:18;98882.91;;;4.54;100.00
63607;BME280;71992;52.478;-1.918;2023-12-07T07:10:49;98877.50;;;4.56;100.00
63607;BME280;71992;52.478;-1.918;2023-12-07T07:13:20;98859.78;;;4.58;100.00
63607;BME280;71992;52.478;-1.918;2023-12-07T07:15:54;98865.00;;;4.59;100.00
63607;BME280;71992;52.478;-1.918;2023-12-07T07:18:25;98856.03;;;4.62;100.00
63607;BME280;71992;52.478;-1.918;2023-12-07T07:20:57;98861.13;;;4.65;100.00
63607;BME280;71992;52.478;-1.918;2023-12-07T07:23:28;98850.56;;;4.65;100.00
63607;BME280;71992;52.478;-1.918;2023-12-07T07:25:58;98850.47;;;4.67;100.00
63607;BME280;71992;52.478;-1.918;2023-12-07T07:28:29;98846.88;;;4.68;100.00
63607;BME280;71992;52.478;-1.918;2023-12-07T07:31:03;98858.16;;;4.71;100.00
63607;BME280;71992;52.478;-1.918;2023-12-07T07:33:34;98851.84;;;4.74;100.00
63607;BME280;71992;52.478;-1.918;2023-12-07T07:36:05;98855.19;;;4.77;100.00
63607;BME280;71992;52.478;-1.918;2023-12-07T07:38:36;98852.44;;;4.79;100.00
63607;BME280;71992;52.478;-1.918;2023-12-07T07:41:07;98848.78;;;4.81;100.00
63607;BME280;71992;52.478;-1.918;2023-12-07T07:43:38;98847.84;;;4.82;100.00
63607;BME280;71992;52.478;-1.918;2023-12-07T07:46:14;98853.97;;;4.83;100.00
63607;BME280;71992;52.478;-1.918;2023-12-07T07:48:44;98859.19;;;4.85;100.00
63607;BME280;71992;52.478;-1.918;2023-12-07T07:51:15;98845.00;;;4.86;100.00
63607;BME280;71992;52.478;-1.918;2023-12-07T07:53:46;98837.00;;;4.87;100.00
63607;BME280;71992;52.478;-1.918;2023-12-07T07:56:17;98845.63;;;4.91;100.00
63607;BME280;71992;52.478;-1.918;2023-12-07T07:58:48;98832.28;;;4.92;100.00
63607;BME280;71992;52.478;-1.918;2023-12-07T08:01:22;98837.31;;;4.97;100.00
63607;BME280;71992;52.478;-1.918;2023-12-07T08:03:53;98824.84;;;4.99;100.00
63607;BME280;71992;52.478;-1.918;2023-12-07T08:06:24;98833.56;;;5.01;100.00
63607;BME280;71992;52.478;-1.918;2023-12-07T08:08:55;98833.47;;;5.02;100.00
63607;BME280;71992;52.478;-1.918;2023-12-07T08:11:25;98828.94;;;5.05;100.00
63607;BME280;71992;52.478;-1.918;2023-12-07T08:13:56;98824.50;;;5.05;100.00
63607;BME280;71992;52.478;-1.918;2023-12-07T08:16:30;98809.38;;;5.07;100.00
63607;BME280;71992;52.478;-1.918;2023-12-07T08:19:02;98801.38;;;5.09;100.00
63607;BME280;71992;52.478;-1.918;2023-12-07T08:21:33;98814.50;;;5.10;100.00
63607;BME280;71992;52.478;-1.918;2023-12-07T08:24:04;98809.19;;;5.10;100.00
63607;BME280;71992;52.478;-1.918;2023-12-07T08:26:37;98809.13;;;5.12;100.00
63607;BME280;71992;52.478;-1.918;2023-12-07T08:29:08;98788.88;;;5.11;100.00
63607;BME280;71992;52.478;-1.918;2023-12-07T08:31:43;98801.09;;;5.13;100.00
63607;BME280;71992;52.478;-1.918;2023-12-07T08:34:14;98786.91;;;5.14;100.00
63607;BME280;71992;52.478;-1.918;2023-12-07T08:36:45;98781.63;;;5.14;100.00
63607;BME280;71992;52.478;-1.918;2023-12-07T08:39:16;98782.38;;;5.16;100.00
63607;BME280;71992;52.478;-1.918;2023-12-07T08:41:47;98772.66;;;5.17;100.00
63607;BME280;71992;52.478;-1.918;2023-12-07T08:44:17;98765.47;;;5.19;100.00
63607;BME280;71992;52.478;-1.918;2023-12-07T08:46:51;98760.94;;;5.21;100.00
63607;BME280;71992;52.478;-1.918;2023-12-07T08:49:22;98756.50;;;5.21;100.00
63607;BME280;71992;52.478;-1.918;2023-12-07T08:51:53;98758.22;;;5.22;100.00
63607;BME280;71992;52.478;-1.918;2023-12-07T08:54:25;98753.69;;;5.25;100.00
63607;BME280;71992;52.478;-1.918;2023-12-07T08:56:57;98750.16;;;5.24;100.00
63607;BME280;71992;52.478;-1.918;2023-12-07T08:59:29;98759.72;;;5.27;100.00
63607;BME280;71992;52.478;-1.918;2023-12-07T09:02:03;98754.25;;;5.30;100.00
63607;BME280;71992;52.478;-1.918;2023-12-07T09:04:34;98722.38;;;5.31;100.00
63607;BME280;71992;52.478;-1.918;2023-12-07T09:07:05;98730.31;;;5.31;100.00
63607;BME280;71992;52.478;-1.918;2023-12-07T09:09:36;98733.72;;;5.33;100.00
63607;BME280;71992;52.478;-1.918;2023-12-07T09:12:08;98720.41;;;5.35;100.00
63607;BME280;71992;52.478;-1.918;2023-12-07T09:14:38;98713.22;;;5.37;100.00
63607;BME280;71992;52.478;-1.918;2023-12-07T09:17:13;98717.66;;;5.36;100.00
63607;BME280;71992;52.478;-1.918;2023-12-07T09:19:46;98716.63;;;5.39;100.00
63607;BME280;71992;52.478;-1.918;2023-12-07T09:22:17;98712.19;;;5.39;100.00
63607;BME280;71992;52.478;-1.918;2023-12-07T09:24:47;98717.41;;;5.41;100.00
63607;BME280;71992;52.478;-1.918;2023-12-07T09:27:18;98719.94;;;5.42;100.00
63607;BME280;71992;52.478;-1.918;2023-12-07T09:29:49;98709.25;;;5.44;100.00
63607;BME280;71992;52.478;-1.918;2023-12-07T09:32:22;98701.31;;;5.44;100.00
63607;BME280;71992;52.478;-1.918;2023-12-07T09:34:55;98700.38;;;5.45;100.00
63607;BME280;71992;52.478;-1.918;2023-12-07T09:37:29;98696.78;;;5.46;100.00
63607;BME280;71992;52.478;-1.918;2023-12-07T09:40:04;98691.41;;;5.48;100.00
63607;BME280;71992;52.478;-1.918;2023-12-07T09:42:35;98686.94;;;5.48;100.00
63607;BME280;71992;52.478;-1.918;2023-12-07T09:45:08;98687.78;;;5.49;100.00
63607;BME280;71992;52.478;-1.918;2023-12-07T09:47:42;98683.34;;;5.49;100.00
63607;BME280;71992;52.478;-1.918;2023-12-07T09:50:15;98683.25;;;5.51;100.00
63607;BME280;71992;52.478;-1.918;2023-12-07T09:52:47;98680.50;;;5.52;100.00
63607;BME280;71992;52.478;-1.918;2023-12-07T09:55:18;98666.31;;;5.53;100.00
63607;BME280;71992;52.478;-1.918;2023-12-07T09:57:50;98677.66;;;5.55;100.00
63607;BME280;71992;52.478;-1.918;2023-12-07T10:00:24;98676.91;;;5.53;100.00
63607;BME280;71992;52.478;-1.918;2023-12-07T10:02:59;98662.63;;;5.56;100.00
63607;BME280;71992;52.478;-1.918;2023-12-07T10:05:30;98660.81;;;5.56;100.00
63607;BME280;71992;52.478;-1.918;2023-12-07T10:08:00;98659.03;;;5.57;100.00
63607;BME280;71992;52.478;-1.918;2023-12-07T10:10:34;98658.94;;;5.58;100.00
63607;BME280;71992;52.478;-1.918;2023-12-07T10:13:04;98659.81;;;5.59;100.00
63607;BME280;71992;52.478;-1.918;2023-12-07T10:15:35;98664.22;;;5.58;100.00
63607;BME280;71992;52.478;-1.918;2023-12-07T10:18:09;98656.28;;;5.58;100.00
63607;BME280;71992;52.478;-1.918;2023-12-07T10:20:45;98658.09;;;5.58;100.00
63607;BME280;71992;52.478;-1.918;2023-12-07T10:23:16;98657.25;;;5.57;100.00
63607;BME280;71992;52.478;-1.918;2023-12-07T10:25:47;98647.56;;;5.56;100.00
63607;BME280;71992;52.478;-1.918;2023-12-07T10:28:20;98644.09;;;5.56;100.00
63607;BME280;71992;52.478;-1.918;2023-12-07T10:30:51;98648.53;;;5.55;100.00
63607;BME280;71992;52.478;-1.918;2023-12-07T10:33:25;98645.81;;;5.57;100.00
63607;BME280;71992;52.478;-1.918;2023-12-07T10:35:56;98655.44;;;5.58;100.00
63607;BME280;71992;52.478;-1.918;2023-12-07T10:38:27;98641.25;;;5.59;100.00
63607;BME280;71992;52.478;-1.918;2023-12-07T10:41:04;98642.09;;;5.59;100.00
63607;BME280;71992;52.478;-1.918;2023-12-07T10:43:37;98615.63;;;5.59;100.00
63607;BME280;71992;52.478;-1.918;2023-12-07T10:46:09;98626.22;;;5.59;100.00
63607;BME280;71992;52.478;-1.918;2023-12-07T10:48:44;98607.69;;;5.59;100.00
63607;BME280;71992;52.478;-1.918;2023-12-07T10:51:18;98595.28;;;5.60;100.00
63607;BME280;71992;52.478;-1.918;2023-12-07T10:53:51;98573.34;;;5.58;100.00
63607;BME280;71992;52.478;-1.918;2023-12-07T10:56:28;98591.03;;;5.57;100.00
63607;BME280;71992;52.478;-1.918;2023-12-07T10:59:00;98594.53;;;5.58;100.00
63607;BME280;71992;52.478;-1.918;2023-12-07T11:01:31;98596.31;;;5.57;100.00
63607;BME280;71992;52.478;-1.918;2023-12-07T11:04:06;98591.88;;;5.58;100.00
63607;BME280;71992;52.478;-1.918;2023-12-07T11:06:38;98597.16;;;5.58;100.00
63607;BME280;71992;52.478;-1.918;2023-12-07T11:09:12;98611.25;;;5.58;100.00
63607;BME280;71992;52.478;-1.918;2023-12-07T11:11:48;98601.72;;;5.56;100.00
63607;BME280;71992;52.478;-1.918;2023-12-07T11:14:21;98594.53;;;5.58;100.00
63607;BME280;71992;52.478;-1.918;2023-12-07T11:16:53;98589.31;;;5.56;100.00
63607;BME280;71992;52.478;-1.918;2023-12-07T11:19:47;98591.03;;;5.57;100.00
63607;BME280;71992;52.478;-1.918;2023-12-07T11:22:21;98593.59;;;5.59;100.00
63607;BME280;71992;52.478;-1.918;2023-12-07T11:24:55;98576.06;;;5.56;100.00
63607;BME280;71992;52.478;-1.918;2023-12-07T11:27:30;98575.91;;;5.59;100.00
63607;BME280;71992;52.478;-1.918;2023-12-07T11:30:06;98576.81;;;5.58;100.00
63607;BME280;71992;52.478;-1.918;2023-12-07T11:32:38;98564.47;;;5.59;100.00
63607;BME280;71992;52.478;-1.918;2023-12-07T11:35:14;98565.38;;;5.58;100.00
63607;BME280;71992;52.478;-1.918;2023-12-07T11:38:03;98548.56;;;5.59;100.00
63607;BME280;71992;52.478;-1.918;2023-12-07T11:40:37;98537.97;;;5.59;100.00
63607;BME280;71992;52.478;-1.918;2023-12-07T11:43:17;98529.16;;;5.58;100.00
63607;BME280;71992;52.478;-1.918;2023-12-07T11:45:49;98521.34;;;5.57;100.00
63607;BME280;71992;52.478;-1.918;2023-12-07T11:48:21;98522.94;;;5.59;100.00
63607;BME280;71992;52.478;-1.918;2023-12-07T11:51:00;98520.28;;;5.59;100.00
63607;BME280;71992;52.478;-1.918;2023-12-07T11:53:29;98505.31;;;5.58;100.00
63607;BME280;71992;52.478;-1.918;2023-12-07T11:56:01;98487.66;;;5.59;100.00
63607;BME280;71992;52.478;-1.918;2023-12-07T11:58:35;98493.81;;;5.59;100.00
63607;BME280;71992;52.478;-1.918;2023-12-07T12:01:06;98466.56;;;5.57;100.00
63607;BME280;71992;52.478;-1.918;2023-12-07T12:03:37;98462.94;;;5.58;100.00
63607;BME280;71992;52.478;-1.918;2023-12-07T12:06:11;98465.59;;;5.58;100.00
63607;BME280;71992;52.478;-1.918;2023-12-07T12:08:42;98469.13;;;5.59;100.00
63607;BME280;71992;52.478;-1.918;2023-12-07T12:11:13;98459.38;;;5.59;100.00
63607;BME280;71992;52.478;-1.918;2023-12-07T12:13:45;98464.66;;;5.59;100.00
63607;BME280;71992;52.478;-1.918;2023-12-07T12:16:17;98451.44;;;5.59;100.00
63607;BME280;71992;52.478;-1.918;2023-12-07T12:18:48;98453.31;;;5.57;100.00
63607;BME280;71992;52.478;-1.918;2023-12-07T12:21:23;98431.19;;;5.58;100.00
63607;BME280;71992;52.478;-1.918;2023-12-07T12:23:53;98422.38;;;5.58;100.00
63607;BME280;71992;52.478;-1.918;2023-12-07T12:26:24;98417.09;;;5.58;100.00
63607;BME280;71992;52.478;-1.918;2023-12-07T12:28:55;98420.59;;;5.58;100.00
63607;BME280;71992;52.478;-1.918;2023-12-07T12:31:26;98427.69;;;5.58;100.00
63607;BME280;71992;52.478;-1.918;2023-12-07T12:33:57;98428.53;;;5.58;100.00
63607;BME280;71992;52.478;-1.918;2023-12-07T12:36:30;98436.47;;;5.58;100.00
63607;BME280;71992;52.478;-1.918;2023-12-07T12:39:01;98435.63;;;5.58;100.00
63607;BME280;71992;52.478;-1.918;2023-12-07T12:41:36;98423.22;;;5.58;100.00
63607;BME280;71992;52.478;-1.918;2023-12-07T12:44:09;98421.75;;;5.54;100.00
63607;BME280;71992;52.478;-1.918;2023-12-07T12:46:40;98407.78;;;5.52;100.00
63607;BME280;71992;52.478;-1.918;2023-12-07T12:49:13;98414.00;;;5.51;100.00
63607;BME280;71992;52.478;-1.918;2023-12-07T12:51:47;98404.47;;;5.49;100.00
63607;BME280;71992;52.478;-1.918;2023-12-07T12:54:20;98394.09;;;5.46;100.00
63607;BME280;71992;52.478;-1.918;2023-12-07T12:56:51;98392.28;;;5.46;100.00
63607;BME280;71992;52.478;-1.918;2023-12-07T12:59:22;98388.88;;;5.44;100.00
63607;BME280;71992;52.478;-1.918;2023-12-07T13:01:53;98385.50;;;5.42;100.00
63607;BME280;71992;52.478;-1.918;2023-12-07T13:04:24;98379.44;;;5.40;100.00
63607;BME280;71992;52.478;-1.918;2023-12-07T13:06:57;98366.13;;;5.41;100.00
63607;BME280;71992;52.478;-1.918;2023-12-07T13:09:28;98374.91;;;5.42;100.00
63607;BME280;71992;52.478;-1.918;2023-12-07T13:11:59;98372.47;;;5.39;100.00
63607;BME280;71992;52.478;-1.918;2023-12-07T13:14:33;98380.28;;;5.40;100.00